createdAt,value
2023-05-20T00:00:59.912Z,64.40
2023-05-20T00:03:29.906Z,61.50
2023-05-20T00:05:58.500Z,64.00
2023-05-20T00:08:26.892Z,60.30
2023-05-20T00:10:55.331Z,58.70
2023-05-20T00:13:24.744Z,60.10
2023-05-20T00:15:53.732Z,64.20
2023-05-20T00:18:22.036Z,64.90
2023-05-20T00:20:50.553Z,71.90
2023-05-20T00:23:18.897Z,71.70
2023-05-20T00:25:47.199Z,84.20
2023-05-20T00:28:15.684Z,77.90
2023-05-20T00:30:43.958Z,72.10
2023-05-20T00:33:12.847Z,76.20
2023-05-20T00:35:41.191Z,74.00
2023-05-20T00:38:09.583Z,72.90
2023-05-20T00:40:38.017Z,74.30
2023-05-20T00:43:06.271Z,72.90
2023-05-20T00:45:34.918Z,73.50
2023-05-20T00:48:04.365Z,75.40
2023-05-20T00:50:32.760Z,76.90
2023-05-20T00:53:01.659Z,75.60
2023-05-20T00:55:29.990Z,67.20
2023-05-20T00:57:58.899Z,70.40
2023-05-20T01:00:27.453Z,72.90
2023-05-20T01:02:56.905Z,71.40
2023-05-20T01:05:25.439Z,73.00
2023-05-20T01:07:53.971Z,68.40
2023-05-20T01:10:25.966Z,71.30
2023-05-20T01:12:58.257Z,66.80
2023-05-20T01:15:28.022Z,71.80
2023-05-20T01:18:01.837Z,67.00
2023-05-20T01:20:32.778Z,62.90
2023-05-20T01:23:01.445Z,65.20
2023-05-20T01:25:30.045Z,62.80
2023-05-20T01:27:58.794Z,65.20
2023-05-20T01:30:33.976Z,57.70
2023-05-20T01:33:07.832Z,63.10
2023-05-20T01:35:36.925Z,62.00
2023-05-20T01:38:07.372Z,66.50
2023-05-20T01:40:36.679Z,66.40
2023-05-20T01:43:06.240Z,63.10
2023-05-20T01:45:34.699Z,62.30
2023-05-20T01:48:03.603Z,63.90
2023-05-20T01:50:32.012Z,68.50
2023-05-20T01:53:00.488Z,63.00
2023-05-20T01:55:28.955Z,62.80
2023-05-20T01:57:57.450Z,60.70
2023-05-20T02:00:25.728Z,62.90
2023-05-20T02:02:54.126Z,62.50
2023-05-20T02:05:22.498Z,58.80
2023-05-20T02:07:51.000Z,60.90
2023-05-20T02:10:22.142Z,55.80
2023-05-20T02:12:50.455Z,60.60
2023-05-20T02:15:18.817Z,57.90
2023-05-20T02:17:47.380Z,61.00
2023-05-20T02:20:16.403Z,58.70
2023-05-20T02:22:44.773Z,60.00
2023-05-20T02:25:13.110Z,61.50
2023-05-20T02:27:41.345Z,62.00
2023-05-20T02:30:10.644Z,65.70
2023-05-20T02:32:39.119Z,60.30
2023-05-20T02:35:08.144Z,60.00
2023-05-20T02:37:36.476Z,62.30
2023-05-20T02:40:05.342Z,60.50
2023-05-20T02:42:33.808Z,58.50
2023-05-20T02:45:02.621Z,58.50
2023-05-20T02:47:31.021Z,55.80
2023-05-20T02:49:59.351Z,53.00
2023-05-20T02:52:27.579Z,51.40
2023-05-20T02:54:56.527Z,53.40
2023-05-20T02:57:25.738Z,45.20
2023-05-20T02:59:56.408Z,47.40
2023-05-20T03:02:25.278Z,47.10
2023-05-20T03:04:54.993Z,49.00
2023-05-20T03:07:23.502Z,54.90
2023-05-20T03:09:52.510Z,50.00
2023-05-20T03:12:20.967Z,56.00
2023-05-20T03:14:49.226Z,45.00
2023-05-20T03:17:17.614Z,46.40
2023-05-20T03:19:46.382Z,45.90
2023-05-20T03:22:14.713Z,44.80
2023-05-20T03:24:44.473Z,48.60
2023-05-20T03:27:14.364Z,46.00
2023-05-20T03:29:42.781Z,52.00
2023-05-20T03:32:11.349Z,55.90
2023-05-20T03:34:40.112Z,48.40
2023-05-20T03:37:08.518Z,49.20
2023-05-20T03:39:36.821Z,58.90
2023-05-20T03:42:05.721Z,54.30
2023-05-20T03:44:34.135Z,51.80
2023-05-20T03:47:02.728Z,63.10
2023-05-20T03:49:31.489Z,63.80
2023-05-20T03:51:59.867Z,60.90
2023-05-20T03:54:30.109Z,63.30
2023-05-20T03:56:58.535Z,55.60
2023-05-20T03:59:27.619Z,63.50
2023-05-20T04:01:59.859Z,70.70
2023-05-20T04:04:28.357Z,67.80
2023-05-20T04:06:57.044Z,63.30
2023-05-20T04:09:25.502Z,71.40
2023-05-20T04:11:53.900Z,67.50
2023-05-20T04:14:22.280Z,66.60
2023-05-20T04:16:51.760Z,64.90
2023-05-20T04:19:20.320Z,71.20
2023-05-20T04:21:48.636Z,69.90
2023-05-20T04:24:17.276Z,84.80
2023-05-20T04:26:45.820Z,65.90
2023-05-20T04:29:16.125Z,65.00
2023-05-20T04:31:46.540Z,74.90
2023-05-20T04:34:15.320Z,74.20
2023-05-20T04:36:45.748Z,75.60
2023-05-20T04:39:15.714Z,68.60
2023-05-20T04:41:44.256Z,65.10
2023-05-20T04:44:13.451Z,69.30
2023-05-20T04:46:41.836Z,68.50
2023-05-20T04:49:10.368Z,75.30
2023-05-20T04:51:38.927Z,67.00
2023-05-20T04:54:07.737Z,66.90
2023-05-20T04:56:36.421Z,66.90
2023-05-20T04:59:05.142Z,70.30
2023-05-20T05:01:33.520Z,71.40
2023-05-20T05:04:06.494Z,74.20
2023-05-20T05:06:50.739Z,70.00
2023-05-20T05:09:27.546Z,70.70
2023-05-20T05:12:03.692Z,60.10
2023-05-20T05:14:32.043Z,67.60
2023-05-20T05:17:00.406Z,69.20
2023-05-20T05:19:28.996Z,64.20
2023-05-20T05:21:57.602Z,62.00
2023-05-20T05:24:26.268Z,68.20
2023-05-20T05:26:55.651Z,61.10
2023-05-20T05:29:24.762Z,75.50
2023-05-20T05:31:53.189Z,86.30
2023-05-20T05:34:21.719Z,64.90
2023-05-20T05:36:50.196Z,67.30
2023-05-20T05:39:18.671Z,85.70
2023-05-20T05:41:47.017Z,87.60
2023-05-20T05:44:15.947Z,77.80
2023-05-20T05:46:44.519Z,79.50
2023-05-20T05:49:12.765Z,94.40
2023-05-20T05:51:42.056Z,82.40
2023-05-20T05:54:10.475Z,74.00
2023-05-20T05:56:39.513Z,76.40
2023-05-20T05:59:08.057Z,71.00
2023-05-20T06:01:37.506Z,76.30
2023-05-20T06:04:07.102Z,72.80
2023-05-20T06:06:36.030Z,69.30
2023-05-20T06:09:04.907Z,120.90
2023-05-20T06:11:36.576Z,77.60
2023-05-20T06:14:04.961Z,93.70
2023-05-20T06:16:33.246Z,80.90
2023-05-20T06:19:03.651Z,83.90
2023-05-20T06:21:33.016Z,99.80
2023-05-20T06:24:01.462Z,82.10
2023-05-20T06:26:30.069Z,77.20
2023-05-20T06:28:59.246Z,100.50
2023-05-20T06:31:27.853Z,91.10
2023-05-20T06:33:56.555Z,83.50
2023-05-20T06:36:25.003Z,99.90
2023-05-20T06:38:53.240Z,85.50
2023-05-20T06:41:22.434Z,85.00
2023-05-20T06:43:53.497Z,83.90
2023-05-20T06:46:43.743Z,84.90
2023-05-20T06:49:16.346Z,90.90
2023-05-20T06:51:44.847Z,78.70
2023-05-20T06:54:13.186Z,78.10
2023-05-20T06:56:41.562Z,74.70
2023-05-20T06:59:09.998Z,84.80
2023-05-20T07:01:39.241Z,76.60
2023-05-20T07:04:07.773Z,91.30
2023-05-20T07:06:36.274Z,80.80
2023-05-20T07:09:05.650Z,82.70
2023-05-20T07:11:34.572Z,71.90
2023-05-20T07:14:02.942Z,82.00
2023-05-20T07:16:35.306Z,109.50
2023-05-20T07:19:04.415Z,93.50
2023-05-20T07:21:32.987Z,80.70
2023-05-20T07:24:36.009Z,80.10
2023-05-20T07:27:07.404Z,81.00
2023-05-20T07:29:37.977Z,76.20
2023-05-20T07:32:06.937Z,94.10
2023-05-20T07:34:36.234Z,89.10
2023-05-20T07:37:04.793Z,80.20
2023-05-20T07:39:35.082Z,84.70
2023-05-20T07:42:03.497Z,83.70
2023-05-20T07:44:32.006Z,109.50
2023-05-20T07:47:01.154Z,82.60
2023-05-20T07:49:29.967Z,91.50
2023-05-20T07:52:00.897Z,72.60
2023-05-20T07:54:34.184Z,68.90
2023-05-20T07:57:33.734Z,69.40
2023-05-20T08:00:04.099Z,66.00
2023-05-20T08:02:32.612Z,62.70
2023-05-20T08:05:01.251Z,60.60
2023-05-20T08:07:29.715Z,65.30
2023-05-20T08:09:58.363Z,57.00
2023-05-20T08:12:28.152Z,56.30
2023-05-20T08:14:56.521Z,57.90
2023-05-20T08:17:25.241Z,57.00
2023-05-20T08:19:55.265Z,57.10
2023-05-20T08:22:23.769Z,55.30
2023-05-20T08:24:52.115Z,62.00
2023-05-20T08:27:20.576Z,53.10
2023-05-20T08:29:48.871Z,55.80
2023-05-20T08:32:17.338Z,53.70
2023-05-20T08:34:46.286Z,52.90
2023-05-20T08:37:14.787Z,50.50
2023-05-20T08:39:45.147Z,53.60
2023-05-20T08:42:13.888Z,57.70
2023-05-20T08:44:43.294Z,55.00
2023-05-20T08:47:12.763Z,54.00
2023-05-20T08:49:41.218Z,51.10
2023-05-20T08:52:11.694Z,56.30
2023-05-20T08:54:50.375Z,53.50
2023-05-20T08:57:20.405Z,48.70
2023-05-20T08:59:51.716Z,51.70
2023-05-20T09:02:20.073Z,63.10
2023-05-20T09:04:48.516Z,53.30
2023-05-20T09:07:30.061Z,51.50
2023-05-20T09:09:59.189Z,50.50
2023-05-20T09:12:27.801Z,44.40
2023-05-20T09:14:56.100Z,46.70
2023-05-20T09:17:24.680Z,47.40
2023-05-20T09:19:54.259Z,47.90
2023-05-20T09:24:25.458Z,47.20
2023-05-20T09:26:53.918Z,46.90
2023-05-20T09:29:25.814Z,48.50
2023-05-20T09:31:56.590Z,49.10
2023-05-20T09:34:25.097Z,49.60
2023-05-20T09:36:55.284Z,48.20
2023-05-20T09:39:27.616Z,50.20
2023-05-20T09:42:04.028Z,66.40
2023-05-20T09:44:34.287Z,52.30
2023-05-20T09:47:03.150Z,51.20
2023-05-20T09:49:33.026Z,48.80
2023-05-20T09:52:03.956Z,47.30
2023-05-20T09:54:32.419Z,50.60
2023-05-20T09:57:01.209Z,50.00
2023-05-20T09:59:31.851Z,44.90
2023-05-20T10:02:00.919Z,62.90
2023-05-20T10:04:31.441Z,63.80
2023-05-20T10:07:11.992Z,68.90
2023-05-20T10:09:43.610Z,54.90
2023-05-20T10:12:14.834Z,52.30
2023-05-20T10:14:48.962Z,48.00
2023-05-20T10:17:45.675Z,47.80
2023-05-20T10:20:14.536Z,40.00
2023-05-20T10:22:45.381Z,43.40
2023-05-20T10:25:28.552Z,46.40
2023-05-20T10:28:09.213Z,47.00
2023-05-20T10:30:38.171Z,51.50
2023-05-20T10:33:07.824Z,45.00
2023-05-20T10:35:36.568Z,42.40
2023-05-20T10:38:11.108Z,40.50
2023-05-20T10:43:13.362Z,51.60
2023-05-20T10:45:53.639Z,48.60
2023-05-20T10:48:32.373Z,56.40
2023-05-20T10:51:05.919Z,47.20
2023-05-20T10:53:42.218Z,48.70
2023-05-20T10:56:24.015Z,43.00
2023-05-20T10:58:54.833Z,47.90
2023-05-20T11:01:28.604Z,49.20
2023-05-20T11:03:58.605Z,38.30
2023-05-20T11:06:35.082Z,37.20
2023-05-20T11:09:25.609Z,40.30
2023-05-20T11:12:07.913Z,37.70
2023-05-20T11:14:41.151Z,37.90
2023-05-20T11:17:44.622Z,40.10
2023-05-20T11:23:30.290Z,34.20
2023-05-20T11:26:10.631Z,34.30
2023-05-20T11:29:17.175Z,33.10
2023-05-20T11:31:52.907Z,30.80
2023-05-20T11:34:26.799Z,30.40
2023-05-20T11:37:13.786Z,30.10
2023-05-20T11:40:10.048Z,35.40
2023-05-20T11:42:38.496Z,32.70
2023-05-20T11:45:07.277Z,33.10
2023-05-20T11:47:35.618Z,30.10
2023-05-20T11:50:05.005Z,29.00
2023-05-20T11:52:34.055Z,34.50
2023-05-20T11:55:03.099Z,34.70
2023-05-20T11:57:31.813Z,31.40
2023-05-20T12:00:00.117Z,28.90
2023-05-20T12:02:28.500Z,34.20
2023-05-20T12:04:58.359Z,30.40
2023-05-20T12:07:26.840Z,30.40
2023-05-20T12:10:02.333Z,31.90
2023-05-20T12:12:36.507Z,32.90
2023-05-20T12:15:15.938Z,35.40
2023-05-20T12:17:54.105Z,34.80
2023-05-20T12:20:34.710Z,34.60
2023-05-20T12:23:15.501Z,34.40
2023-05-20T12:26:11.345Z,33.30
2023-05-20T12:28:56.150Z,31.50
2023-05-20T12:31:25.382Z,38.00
2023-05-20T12:33:53.864Z,30.90
2023-05-20T12:36:27.451Z,33.30
2023-05-20T12:39:07.564Z,32.40
2023-05-20T12:41:44.990Z,32.10
2023-05-20T12:44:45.801Z,36.10
2023-05-20T12:50:52.007Z,28.90
2023-05-20T12:53:20.313Z,36.70
2023-05-20T12:55:48.705Z,27.10
2023-05-20T12:58:17.000Z,29.80
2023-05-20T13:00:59.917Z,31.60
2023-05-20T13:03:32.097Z,24.60
2023-05-20T13:06:27.511Z,26.30
2023-05-20T13:09:15.696Z,27.50
2023-05-20T13:12:12.451Z,26.20
2023-05-20T13:15:08.956Z,24.80
2023-05-20T13:17:38.315Z,27.20
2023-05-20T13:20:11.247Z,26.20
2023-05-20T13:22:57.708Z,22.70
2023-05-20T13:25:31.936Z,24.10
2023-05-20T13:28:00.600Z,23.00
2023-05-20T13:30:29.142Z,26.20
2023-05-20T13:32:57.542Z,22.80
2023-05-20T13:35:25.954Z,23.30
2023-05-20T13:37:54.250Z,22.20
2023-05-20T13:40:22.701Z,26.20
2023-05-20T13:42:51.030Z,22.70
2023-05-20T13:45:19.890Z,22.90
2023-05-20T13:47:48.309Z,25.20
2023-05-20T13:50:26.623Z,21.20
2023-05-20T13:53:12.559Z,29.50
2023-05-20T13:55:41.716Z,30.20
2023-05-20T13:58:17.447Z,30.50
2023-05-20T14:00:46.246Z,25.50
2023-05-20T14:03:15.236Z,23.20
2023-05-20T14:05:48.333Z,26.30
2023-05-20T14:08:23.327Z,30.20
2023-05-20T14:10:59.054Z,26.00
2023-05-20T14:13:28.927Z,22.10
2023-05-20T14:16:06.372Z,25.00
2023-05-20T14:18:34.804Z,29.30
2023-05-20T14:21:03.132Z,21.60
2023-05-20T14:23:31.428Z,25.40
2023-05-20T14:25:59.820Z,41.10
2023-05-20T14:28:28.082Z,21.30
2023-05-20T14:31:01.948Z,27.50
2023-05-20T14:33:36.723Z,19.80
2023-05-20T14:36:05.388Z,22.90
2023-05-20T14:38:37.646Z,20.70
2023-05-20T14:41:10.337Z,24.30
2023-05-20T14:43:39.120Z,20.90
2023-05-20T14:46:07.568Z,25.70
2023-05-20T14:48:36.245Z,20.00
2023-05-20T14:51:23.723Z,18.50
2023-05-20T14:57:04.045Z,25.90
2023-05-20T14:59:33.225Z,19.80
2023-05-20T15:02:08.311Z,22.90
2023-05-20T15:04:39.069Z,17.20
2023-05-20T15:07:07.478Z,20.10
2023-05-20T15:09:35.801Z,21.50
2023-05-20T15:12:04.584Z,17.80
2023-05-20T15:14:43.102Z,20.80
2023-05-20T15:19:53.658Z,18.80
2023-05-20T15:22:32.135Z,20.60
2023-05-20T15:25:06.019Z,17.40
2023-05-20T15:27:43.290Z,18.50
2023-05-20T15:30:12.212Z,19.90
2023-05-20T15:32:42.828Z,21.20
2023-05-20T15:35:11.599Z,18.20
2023-05-20T15:37:39.840Z,16.30
2023-05-20T15:40:16.331Z,16.90
2023-05-20T15:42:47.738Z,15.70
2023-05-20T15:45:16.226Z,26.10
2023-05-20T15:47:44.734Z,14.10
2023-05-20T15:50:16.076Z,16.30
2023-05-20T15:52:46.718Z,15.70
2023-05-20T15:55:19.296Z,17.00
2023-05-20T15:58:00.619Z,13.40
2023-05-20T16:00:39.939Z,18.20
2023-05-20T16:03:11.400Z,16.60
2023-05-20T16:05:41.013Z,17.90
2023-05-20T16:08:29.565Z,17.70
2023-05-20T16:10:58.421Z,15.70
2023-05-20T16:13:37.582Z,18.50
2023-05-20T16:16:06.147Z,18.20
2023-05-20T16:18:37.127Z,16.80
2023-05-20T16:21:10.054Z,22.70
2023-05-20T16:23:42.439Z,20.20
2023-05-20T16:26:14.784Z,17.90
2023-05-20T16:28:43.066Z,22.90
2023-05-20T16:31:22.694Z,18.40
2023-05-20T16:34:07.396Z,46.30
2023-05-20T16:36:59.231Z,34.20
2023-05-20T16:39:32.159Z,84.10
2023-05-20T16:42:00.741Z,21.50
2023-05-20T16:44:29.085Z,23.00
2023-05-20T16:46:57.495Z,71.10
2023-05-20T16:49:25.885Z,41.50
2023-05-20T16:51:54.170Z,32.40
2023-05-20T16:54:22.506Z,31.00
2023-05-20T16:56:51.068Z,24.20
2023-05-20T16:59:19.366Z,51.20
2023-05-20T17:01:47.705Z,24.30
2023-05-20T17:04:16.518Z,36.70
2023-05-20T17:06:44.805Z,21.90
2023-05-20T17:09:13.228Z,19.20
2023-05-20T17:11:41.708Z,19.00
2023-05-20T17:14:10.108Z,31.40
2023-05-20T17:16:38.618Z,20.20
2023-05-20T17:19:07.066Z,30.00
2023-05-20T17:21:36.705Z,18.00
2023-05-20T17:24:05.545Z,24.70
2023-05-20T17:26:33.880Z,20.20
2023-05-20T17:29:02.219Z,16.80
2023-05-20T17:31:30.616Z,15.80
2023-05-20T17:33:59.100Z,21.00
2023-05-20T17:36:27.513Z,15.70
2023-05-20T17:38:56.412Z,17.40
2023-05-20T17:41:24.650Z,17.50
2023-05-20T17:43:52.893Z,18.10
2023-05-20T17:46:21.743Z,17.80
2023-05-20T17:48:50.092Z,16.60
2023-05-20T17:51:18.416Z,13.20
2023-05-20T17:53:46.827Z,17.70
2023-05-20T17:56:15.943Z,17.50
2023-05-20T17:58:45.335Z,18.40
2023-05-20T18:01:15.305Z,16.20
2023-05-20T18:03:43.964Z,15.40
2023-05-20T18:06:12.882Z,17.60
2023-05-20T18:08:42.415Z,17.50
2023-05-20T18:11:10.863Z,20.40
2023-05-20T18:13:39.296Z,22.20
2023-05-20T18:16:08.017Z,18.30
2023-05-20T18:18:36.338Z,20.20
2023-05-20T18:21:06.892Z,18.30
2023-05-20T18:23:35.160Z,16.80
2023-05-20T18:26:07.072Z,18.00
2023-05-20T18:28:35.666Z,19.60
2023-05-20T18:31:04.098Z,18.20
2023-05-20T18:33:32.381Z,19.80
2023-05-20T18:36:00.991Z,24.20
2023-05-20T18:38:29.306Z,20.60
2023-05-20T18:40:57.666Z,21.50
2023-05-20T18:43:26.657Z,19.90
2023-05-20T18:45:55.152Z,18.40
2023-05-20T18:48:27.157Z,23.10
2023-05-20T18:50:56.460Z,27.40
2023-05-20T18:53:24.774Z,23.70
2023-05-20T18:55:53.177Z,26.30
2023-05-20T18:58:21.618Z,29.00
2023-05-20T19:00:49.968Z,23.60
2023-05-20T19:03:18.484Z,22.90
2023-05-20T19:05:46.967Z,26.70
2023-05-20T19:08:15.936Z,22.10
2023-05-20T19:10:44.214Z,21.60
2023-05-20T19:13:12.997Z,23.70
2023-05-20T19:15:41.285Z,40.50
2023-05-20T19:18:09.883Z,34.20
2023-05-20T19:20:38.249Z,25.90
2023-05-20T19:23:06.974Z,22.00
2023-05-20T19:25:35.742Z,26.60
2023-05-20T19:28:05.118Z,25.20
2023-05-20T19:30:33.489Z,24.30
2023-05-20T19:33:04.922Z,27.00
2023-05-20T19:35:34.052Z,28.90
2023-05-20T19:38:05.112Z,24.80
2023-05-20T19:40:35.600Z,24.80
2023-05-20T19:43:04.496Z,24.10
2023-05-20T19:45:33.070Z,23.20
2023-05-20T19:48:01.736Z,22.20
2023-05-20T19:50:30.659Z,24.90
2023-05-20T19:52:59.506Z,25.10
2023-05-20T19:55:27.824Z,27.50
2023-05-20T19:57:56.662Z,25.90
2023-05-20T20:00:25.066Z,29.70
2023-05-20T20:02:53.390Z,29.00
2023-05-20T20:05:23.829Z,29.90
2023-05-20T20:07:52.525Z,25.40
2023-05-20T20:10:21.093Z,29.60
2023-05-20T20:12:50.064Z,27.70
2023-05-20T20:15:20.530Z,27.20
2023-05-20T20:17:52.342Z,26.30
2023-05-20T20:20:21.624Z,27.10
2023-05-20T20:22:50.009Z,28.90
2023-05-20T20:25:18.901Z,32.50
2023-05-20T20:27:48.828Z,31.50
2023-05-20T20:30:17.204Z,30.10
2023-05-20T20:32:48.411Z,31.10
2023-05-20T20:35:17.232Z,26.40
2023-05-20T20:37:45.483Z,28.20
2023-05-20T20:40:14.939Z,29.90
2023-05-20T20:42:45.495Z,30.50
2023-05-20T20:45:15.412Z,29.50
2023-05-20T20:47:44.747Z,25.20
2023-05-20T20:50:13.757Z,28.50
2023-05-20T20:52:42.959Z,26.50
2023-05-20T20:55:11.510Z,28.30
2023-05-20T20:57:42.118Z,26.10
2023-05-20T21:00:17.421Z,26.70
2023-05-20T21:02:45.836Z,26.00
2023-05-20T21:05:17.609Z,26.40
2023-05-20T21:07:50.170Z,28.90
2023-05-20T21:10:19.630Z,26.10
2023-05-20T21:12:47.898Z,26.30
2023-05-20T21:15:16.373Z,28.40
2023-05-20T21:17:44.769Z,23.30
2023-05-20T21:20:13.586Z,26.30
2023-05-20T21:22:41.928Z,21.90
2023-05-20T21:25:10.227Z,24.30
2023-05-20T21:27:39.049Z,22.80
2023-05-20T21:30:11.555Z,30.40
2023-05-20T21:32:40.171Z,27.00
2023-05-20T21:35:09.101Z,25.30
2023-05-20T21:37:37.480Z,22.90
2023-05-20T21:40:06.794Z,27.40
2023-05-20T21:42:35.025Z,26.50
2023-05-20T21:45:03.538Z,27.80
2023-05-20T21:47:31.880Z,28.10
2023-05-20T21:50:00.345Z,27.70
2023-05-20T21:52:28.770Z,28.60
2023-05-20T21:54:57.154Z,25.70
2023-05-20T21:57:25.496Z,28.90
2023-05-20T21:59:53.756Z,25.90
2023-05-20T22:02:23.131Z,25.60
2023-05-20T22:04:51.584Z,26.60
2023-05-20T22:07:19.790Z,24.60
2023-05-20T22:09:48.255Z,26.40
2023-05-20T22:12:16.545Z,25.60
2023-05-20T22:14:44.712Z,24.20
2023-05-20T22:17:13.173Z,26.10
2023-05-20T22:19:41.652Z,26.20
2023-05-20T22:22:09.945Z,25.90
2023-05-20T22:24:38.255Z,22.90
2023-05-20T22:27:06.619Z,25.00
2023-05-20T22:29:35.414Z,24.20
2023-05-20T22:32:04.126Z,25.20
2023-05-20T22:34:32.575Z,26.70
2023-05-20T22:37:00.959Z,23.70
2023-05-20T22:39:29.369Z,26.10
2023-05-20T22:41:57.837Z,25.30
2023-05-20T22:44:26.222Z,26.10
2023-05-20T22:46:54.592Z,26.60
2023-05-20T22:49:23.873Z,24.30
2023-05-20T22:51:52.916Z,27.30
2023-05-20T22:54:21.370Z,28.50
2023-05-20T22:56:56.776Z,25.40
2023-05-20T22:59:31.337Z,25.30
2023-05-20T23:01:59.773Z,25.10
2023-05-20T23:04:28.239Z,28.30
2023-05-20T23:06:59.158Z,25.00
2023-05-20T23:09:29.199Z,26.00
2023-05-20T23:12:00.731Z,26.40
2023-05-20T23:14:29.247Z,25.50
2023-05-20T23:17:00.749Z,24.00
2023-05-20T23:19:29.327Z,25.80
2023-05-20T23:21:58.847Z,28.20
2023-05-20T23:24:27.180Z,28.70
2023-05-20T23:26:55.592Z,29.00
2023-05-20T23:29:24.022Z,26.10
2023-05-20T23:31:52.420Z,28.70
2023-05-20T23:34:21.485Z,24.20
2023-05-20T23:36:50.347Z,24.80
2023-05-20T23:39:19.065Z,28.40
2023-05-20T23:41:47.401Z,25.70
2023-05-20T23:44:15.861Z,27.00
2023-05-20T23:46:45.199Z,29.70
2023-05-20T23:49:13.437Z,40.90
2023-05-20T23:51:41.719Z,29.20
2023-05-20T23:54:09.939Z,29.40
2023-05-20T23:56:38.784Z,32.20
2023-05-20T23:59:07.323Z,30.70
